Decoded Metar for RJAA (TOKYO in JAPAN) (IATA:NRT) | Meteo·Mobile Aviation Weather
aviador You're here:

RJAA Decoded Metar

TOKYO in JAPAN
Report Time2019-10-21 07:00:00
UTC Time2019-10-21 07:41:01
Flight Rules vfr VFR
Wind040° at 11 kt
W.Decomp.*RWY 34: 4.3 kt HW 10.1 kt RCW
Visibility9999 m
Phenomena:N/A
Clouds:Few 030 Hf
Broken 060 Hf
Broken 170 Hf
Expected CloudBase > 1,600 ft AGL from Temp-Dew spread
Ceiling6,000 ft
Temp18°C (ISA +3)
Dew Point14°C (78% RH)
AAT15.3°C
QNH1019 hPa
Density Alt541 ft
Elevation144 ft
Report Wrong Elevation
Raw Report
RJAA 210700Z 04011KT 9999 FEW030 BKN060 BKN170 18/14 Q1019 NOSIG
RMK 1CU030 5SC060 7AC170 A3009 MOD TURB OBS AT 0640Z 5NM NE
NARITA BTN 13000FT AND FL180 IN CMB B763 PAC232=

Extra information for RJAA:More info

Metar Taf Metar & Taf Last 4 Metars F.Rules Stats Wind Profile Meteogram Temp Stats Airport Information Weather charts Add Link Nearby VenuesMetar ALERT Operation Metar Decoded Social comments